sensor_id;sensor_type;location;lat;lon;timestamp;pressure;altitude;pressure_sealevel;temperature
70533;BMP180;58088;51.186;17.130;2022-09-09T00:04:35;99896.80;;;18.50
70533;BMP180;58088;51.186;17.130;2022-09-09T00:07:18;99897.20;;;18.40
70533;BMP180;58088;51.186;17.130;2022-09-09T00:10:16;99900.00;;;18.40
70533;BMP180;58088;51.186;17.130;2022-09-09T00:16:00;99899.20;;;18.20
70533;BMP180;58088;51.186;17.130;2022-09-09T00:21:48;99899.00;;;18.18
70533;BMP180;58088;51.186;17.130;2022-09-09T00:24:43;99899.20;;;18.10
70533;BMP180;58088;51.186;17.130;2022-09-09T00:27:32;99896.00;;;18.10
70533;BMP180;58088;51.186;17.130;2022-09-09T00:30:13;99899.80;;;18.00
70533;BMP180;58088;51.186;17.130;2022-09-09T00:32:41;99899.60;;;17.98
70533;BMP180;58088;51.186;17.130;2022-09-09T00:37:37;99899.20;;;17.90
70533;BMP180;58088;51.186;17.130;2022-09-09T00:40:22;99903.20;;;17.84
70533;BMP180;58088;51.186;17.130;2022-09-09T00:57:22;99901.00;;;17.50
70533;BMP180;58088;51.186;17.130;2022-09-09T01:00:27;99903.40;;;17.50
70533;BMP180;58088;51.186;17.130;2022-09-09T01:03:42;99904.60;;;17.50
70533;BMP180;58088;51.186;17.130;2022-09-09T01:06:34;99902.80;;;17.40
70533;BMP180;58088;51.186;17.130;2022-09-09T01:09:24;99902.80;;;17.40
70533;BMP180;58088;51.186;17.130;2022-09-09T01:12:07;99908.20;;;17.30
70533;BMP180;58088;51.186;17.130;2022-09-09T01:17:25;99904.60;;;17.20
70533;BMP180;58088;51.186;17.130;2022-09-09T01:26:52;99911.60;;;17.20
70533;BMP180;58088;51.186;17.130;2022-09-09T01:29:24;99914.60;;;17.10
70533;BMP180;58088;51.186;17.130;2022-09-09T01:32:03;99917.00;;;17.10
70533;BMP180;58088;51.186;17.130;2022-09-09T01:34:51;99923.40;;;17.10
70533;BMP180;58088;51.186;17.130;2022-09-09T01:37:18;99927.20;;;17.10
70533;BMP180;58088;51.186;17.130;2022-09-09T01:39:44;99922.60;;;17.00
70533;BMP180;58088;51.186;17.130;2022-09-09T01:42:15;99919.00;;;17.00
70533;BMP180;58088;51.186;17.130;2022-09-09T01:44:42;99922.60;;;17.00
70533;BMP180;58088;51.186;17.130;2022-09-09T01:47:09;99923.60;;;17.00
70533;BMP180;58088;51.186;17.130;2022-09-09T01:49:49;99928.60;;;16.98
70533;BMP180;58088;51.186;17.130;2022-09-09T01:52:21;99928.40;;;17.00
70533;BMP180;58088;51.186;17.130;2022-09-09T01:54:48;99929.40;;;17.00
70533;BMP180;58088;51.186;17.130;2022-09-09T01:57:36;99930.40;;;16.92
70533;BMP180;58088;51.186;17.130;2022-09-09T02:00:10;99937.60;;;16.90
70533;BMP180;58088;51.186;17.130;2022-09-09T02:03:05;99934.20;;;16.90
70533;BMP180;58088;51.186;17.130;2022-09-09T02:05:49;99935.00;;;16.80
70533;BMP180;58088;51.186;17.130;2022-09-09T02:08:42;99927.20;;;16.80
70533;BMP180;58088;51.186;17.130;2022-09-09T02:11:23;99930.00;;;16.72
70533;BMP180;58088;51.186;17.130;2022-09-09T02:14:17;99931.40;;;16.70
70533;BMP180;58088;51.186;17.130;2022-09-09T02:17:03;99933.60;;;16.70
70533;BMP180;58088;51.186;17.130;2022-09-09T02:20:04;99935.80;;;16.70
70533;BMP180;58088;51.186;17.130;2022-09-09T02:22:44;99938.80;;;16.60
70533;BMP180;58088;51.186;17.130;2022-09-09T02:25:17;99936.60;;;16.64
70533;BMP180;58088;51.186;17.130;2022-09-09T02:27:47;99939.60;;;16.70
70533;BMP180;58088;51.186;17.130;2022-09-09T02:30:14;99946.00;;;16.62
70533;BMP180;58088;51.186;17.130;2022-09-09T02:32:49;99940.80;;;16.60
70533;BMP180;58088;51.186;17.130;2022-09-09T02:35:21;99944.80;;;16.50
70533;BMP180;58088;51.186;17.130;2022-09-09T02:37:54;99943.60;;;16.40
70533;BMP180;58088;51.186;17.130;2022-09-09T02:40:22;99948.60;;;16.40
70533;BMP180;58088;51.186;17.130;2022-09-09T02:42:55;99950.60;;;16.38
70533;BMP180;58088;51.186;17.130;2022-09-09T02:45:27;99945.80;;;16.40
70533;BMP180;58088;51.186;17.130;2022-09-09T02:48:24;99949.40;;;16.40
70533;BMP180;58088;51.186;17.130;2022-09-09T02:51:24;99956.40;;;16.30
70533;BMP180;58088;51.186;17.130;2022-09-09T02:54:12;99951.60;;;16.30
70533;BMP180;58088;51.186;17.130;2022-09-09T02:56:52;99956.40;;;16.30
70533;BMP180;58088;51.186;17.130;2022-09-09T02:59:22;99954.20;;;16.30
70533;BMP180;58088;51.186;17.130;2022-09-09T03:01:51;99964.20;;;16.30
70533;BMP180;58088;51.186;17.130;2022-09-09T03:04:19;99957.80;;;16.30
70533;BMP180;58088;51.186;17.130;2022-09-09T03:06:47;99952.80;;;16.30
70533;BMP180;58088;51.186;17.130;2022-09-09T03:09:17;99955.00;;;16.24
70533;BMP180;58088;51.186;17.130;2022-09-09T03:11:43;99957.60;;;16.20
70533;BMP180;58088;51.186;17.130;2022-09-09T03:14:09;99960.40;;;16.20
70533;BMP180;58088;51.186;17.130;2022-09-09T03:16:37;99962.60;;;16.20
70533;BMP180;58088;51.186;17.130;2022-09-09T03:19:03;99962.60;;;16.20
70533;BMP180;58088;51.186;17.130;2022-09-09T03:21:29;99965.60;;;16.20
70533;BMP180;58088;51.186;17.130;2022-09-09T03:23:56;99966.60;;;16.20
70533;BMP180;58088;51.186;17.130;2022-09-09T03:26:23;99971.40;;;16.20
70533;BMP180;58088;51.186;17.130;2022-09-09T03:28:49;99970.60;;;16.20
70533;BMP180;58088;51.186;17.130;2022-09-09T03:31:18;99976.40;;;16.16
70533;BMP180;58088;51.186;17.130;2022-09-09T03:33:45;99976.00;;;16.10
70533;BMP180;58088;51.186;17.130;2022-09-09T03:36:14;99977.00;;;16.00
70533;BMP180;58088;51.186;17.130;2022-09-09T03:38:41;99975.00;;;16.00
70533;BMP180;58088;51.186;17.130;2022-09-09T03:41:07;99972.60;;;16.00
70533;BMP180;58088;51.186;17.130;2022-09-09T03:43:35;99977.40;;;16.00
70533;BMP180;58088;51.186;17.130;2022-09-09T03:46:01;99982.80;;;16.00
70533;BMP180;58088;51.186;17.130;2022-09-09T03:48:28;99978.60;;;16.00
70533;BMP180;58088;51.186;17.130;2022-09-09T03:50:55;99987.40;;;16.04
70533;BMP180;58088;51.186;17.130;2022-09-09T03:53:24;99988.20;;;16.00
70533;BMP180;58088;51.186;17.130;2022-09-09T03:55:55;99989.00;;;16.08
70533;BMP180;58088;51.186;17.130;2022-09-09T03:58:23;99991.60;;;16.02
70533;BMP180;58088;51.186;17.130;2022-09-09T04:00:56;99992.60;;;16.00
70533;BMP180;58088;51.186;17.130;2022-09-09T04:03:24;99989.80;;;16.00
70533;BMP180;58088;51.186;17.130;2022-09-09T04:05:52;99992.00;;;16.00
70533;BMP180;58088;51.186;17.130;2022-09-09T04:08:20;99990.20;;;16.02
70533;BMP180;58088;51.186;17.130;2022-09-09T04:10:49;99994.60;;;16.10
70533;BMP180;58088;51.186;17.130;2022-09-09T04:13:17;99996.80;;;16.10
70533;BMP180;58088;51.186;17.130;2022-09-09T04:15:54;99994.00;;;16.10
70533;BMP180;58088;51.186;17.130;2022-09-09T04:18:23;99992.00;;;16.10
70533;BMP180;58088;51.186;17.130;2022-09-09T04:20:51;99990.80;;;16.10
70533;BMP180;58088;51.186;17.130;2022-09-09T04:23:24;99993.60;;;16.10
70533;BMP180;58088;51.186;17.130;2022-09-09T04:25:53;99995.60;;;16.10
70533;BMP180;58088;51.186;17.130;2022-09-09T04:28:24;100000.00;;;16.00
70533;BMP180;58088;51.186;17.130;2022-09-09T04:30:52;99998.60;;;16.00
70533;BMP180;58088;51.186;17.130;2022-09-09T04:33:19;99995.40;;;16.10
70533;BMP180;58088;51.186;17.130;2022-09-09T04:35:48;100001.20;;;16.10
70533;BMP180;58088;51.186;17.130;2022-09-09T04:38:19;100002.20;;;16.10
70533;BMP180;58088;51.186;17.130;2022-09-09T04:40:51;100007.40;;;16.00
70533;BMP180;58088;51.186;17.130;2022-09-09T04:43:18;100005.40;;;16.00
70533;BMP180;58088;51.186;17.130;2022-09-09T04:45:50;100005.80;;;15.90
70533;BMP180;58088;51.186;17.130;2022-09-09T04:48:22;100008.20;;;16.00
70533;BMP180;58088;51.186;17.130;2022-09-09T04:51:08;100005.40;;;16.10
70533;BMP180;58088;51.186;17.130;2022-09-09T04:53:36;100008.40;;;16.20
70533;BMP180;58088;51.186;17.130;2022-09-09T04:56:11;100009.60;;;16.40
70533;BMP180;58088;51.186;17.130;2022-09-09T04:58:52;100008.40;;;16.60
70533;BMP180;58088;51.186;17.130;2022-09-09T05:01:22;100008.00;;;16.84
70533;BMP180;58088;51.186;17.130;2022-09-09T05:03:51;100009.20;;;17.28
70533;BMP180;58088;51.186;17.130;2022-09-09T05:06:22;100010.00;;;17.76
70533;BMP180;58088;51.186;17.130;2022-09-09T05:08:51;100008.60;;;18.30
70533;BMP180;58088;51.186;17.130;2022-09-09T05:11:23;100015.00;;;18.76
70533;BMP180;58088;51.186;17.130;2022-09-09T05:13:53;100014.00;;;19.04
70533;BMP180;58088;51.186;17.130;2022-09-09T05:16:20;100019.80;;;19.30
70533;BMP180;58088;51.186;17.130;2022-09-09T05:18:47;100017.00;;;19.64
70533;BMP180;58088;51.186;17.130;2022-09-09T05:21:16;100016.40;;;20.14
70533;BMP180;58088;51.186;17.130;2022-09-09T05:23:42;100024.80;;;20.60
70533;BMP180;58088;51.186;17.130;2022-09-09T05:26:17;100024.60;;;21.12
70533;BMP180;58088;51.186;17.130;2022-09-09T05:28:45;100026.60;;;21.60
70533;BMP180;58088;51.186;17.130;2022-09-09T05:31:14;100032.40;;;22.08
70533;BMP180;58088;51.186;17.130;2022-09-09T05:33:46;100029.00;;;22.50
70533;BMP180;58088;51.186;17.130;2022-09-09T05:36:19;100029.60;;;22.90
70533;BMP180;58088;51.186;17.130;2022-09-09T05:38:48;100038.00;;;23.30
70533;BMP180;58088;51.186;17.130;2022-09-09T05:41:16;100038.40;;;23.60
70533;BMP180;58088;51.186;17.130;2022-09-09T05:43:44;100041.40;;;24.06
70533;BMP180;58088;51.186;17.130;2022-09-09T05:46:23;100042.00;;;24.44
70533;BMP180;58088;51.186;17.130;2022-09-09T05:48:52;100043.40;;;24.80
70533;BMP180;58088;51.186;17.130;2022-09-09T05:51:24;100045.60;;;25.16
70533;BMP180;58088;51.186;17.130;2022-09-09T05:53:53;100051.80;;;25.54
70533;BMP180;58088;51.186;17.130;2022-09-09T05:56:24;100052.60;;;25.92
70533;BMP180;58088;51.186;17.130;2022-09-09T05:58:53;100047.40;;;26.30
70533;BMP180;58088;51.186;17.130;2022-09-09T06:01:26;100042.80;;;26.60
70533;BMP180;58088;51.186;17.130;2022-09-09T06:03:53;100043.60;;;26.84
70533;BMP180;58088;51.186;17.130;2022-09-09T06:06:24;100044.40;;;27.10
70533;BMP180;58088;51.186;17.130;2022-09-09T06:08:55;100044.60;;;27.30
70533;BMP180;58088;51.186;17.130;2022-09-09T06:11:28;100044.20;;;27.50
70533;BMP180;58088;51.186;17.130;2022-09-09T06:13:59;100051.00;;;27.76
70533;BMP180;58088;51.186;17.130;2022-09-09T06:16:29;100049.20;;;27.90
70533;BMP180;58088;51.186;17.130;2022-09-09T06:18:56;100054.00;;;28.10
70533;BMP180;58088;51.186;17.130;2022-09-09T06:21:28;100049.20;;;28.20
70533;BMP180;58088;51.186;17.130;2022-09-09T06:23:57;100046.20;;;28.30
70533;BMP180;58088;51.186;17.130;2022-09-09T06:26:27;100045.00;;;28.36
70533;BMP180;58088;51.186;17.130;2022-09-09T06:28:56;100041.80;;;28.30
70533;BMP180;58088;51.186;17.130;2022-09-09T06:31:27;100040.60;;;28.40
70533;BMP180;58088;51.186;17.130;2022-09-09T06:33:58;100048.60;;;28.50
70533;BMP180;58088;51.186;17.130;2022-09-09T06:36:30;100048.00;;;28.70
70533;BMP180;58088;51.186;17.130;2022-09-09T06:38:58;100045.20;;;28.86
70533;BMP180;58088;51.186;17.130;2022-09-09T06:41:28;100049.60;;;29.00
70533;BMP180;58088;51.186;17.130;2022-09-09T06:43:55;100048.40;;;29.00
70533;BMP180;58088;51.186;17.130;2022-09-09T06:46:30;100051.60;;;29.10
70533;BMP180;58088;51.186;17.130;2022-09-09T06:48:59;100052.20;;;29.00
70533;BMP180;58088;51.186;17.130;2022-09-09T06:51:32;100054.00;;;28.78
70533;BMP180;58088;51.186;17.130;2022-09-09T06:54:01;100056.60;;;28.80
70533;BMP180;58088;51.186;17.130;2022-09-09T06:56:34;100062.00;;;28.80
70533;BMP180;58088;51.186;17.130;2022-09-09T06:59:05;100071.00;;;29.00
70533;BMP180;58088;51.186;17.130;2022-09-09T07:01:38;100070.00;;;29.10
70533;BMP180;58088;51.186;17.130;2022-09-09T07:04:08;100066.80;;;29.10
70533;BMP180;58088;51.186;17.130;2022-09-09T07:06:43;100065.40;;;29.00
70533;BMP180;58088;51.186;17.130;2022-09-09T07:09:13;100068.80;;;28.82
70533;BMP180;58088;51.186;17.130;2022-09-09T07:11:47;100063.40;;;28.76
70533;BMP180;58088;51.186;17.130;2022-09-09T07:14:15;100066.20;;;28.60
70533;BMP180;58088;51.186;17.130;2022-09-09T07:16:46;100066.20;;;28.80
70533;BMP180;58088;51.186;17.130;2022-09-09T07:19:14;100077.20;;;28.98
70533;BMP180;58088;51.186;17.130;2022-09-09T07:21:41;100079.60;;;29.02
70533;BMP180;58088;51.186;17.130;2022-09-09T07:24:09;100075.40;;;28.90
70533;BMP180;58088;51.186;17.130;2022-09-09T07:26:38;100078.40;;;28.72
70533;BMP180;58088;51.186;17.130;2022-09-09T07:29:07;100077.20;;;28.40
70533;BMP180;58088;51.186;17.130;2022-09-09T07:31:37;100083.80;;;28.14
70533;BMP180;58088;51.186;17.130;2022-09-09T07:34:07;100074.00;;;27.80
70533;BMP180;58088;51.186;17.130;2022-09-09T07:36:37;100082.20;;;27.70
70533;BMP180;58088;51.186;17.130;2022-09-09T07:39:09;100073.60;;;27.80
70533;BMP180;58088;51.186;17.130;2022-09-09T07:41:41;100071.00;;;27.80
70533;BMP180;58088;51.186;17.130;2022-09-09T07:44:15;100069.20;;;27.86
70533;BMP180;58088;51.186;17.130;2022-09-09T07:46:43;100068.20;;;27.90
70533;BMP180;58088;51.186;17.130;2022-09-09T07:49:11;100074.00;;;28.10
70533;BMP180;58088;51.186;17.130;2022-09-09T07:51:42;100080.00;;;28.30
70533;BMP180;58088;51.186;17.130;2022-09-09T07:54:14;100086.60;;;28.40
70533;BMP180;58088;51.186;17.130;2022-09-09T07:56:42;100088.20;;;28.30
70533;BMP180;58088;51.186;17.130;2022-09-09T07:59:10;100093.80;;;28.10
70533;BMP180;58088;51.186;17.130;2022-09-09T08:01:44;100092.40;;;28.10
70533;BMP180;58088;51.186;17.130;2022-09-09T08:04:17;100098.00;;;28.20
70533;BMP180;58088;51.186;17.130;2022-09-09T08:06:51;100096.00;;;28.00
70533;BMP180;58088;51.186;17.130;2022-09-09T08:09:20;100097.60;;;27.88
70533;BMP180;58088;51.186;17.130;2022-09-09T08:11:47;100095.00;;;27.80
70533;BMP180;58088;51.186;17.130;2022-09-09T08:14:14;100097.60;;;27.80
70533;BMP180;58088;51.186;17.130;2022-09-09T08:16:46;100092.20;;;27.80
70533;BMP180;58088;51.186;17.130;2022-09-09T08:19:15;100095.40;;;27.60
70533;BMP180;58088;51.186;17.130;2022-09-09T08:21:44;100097.20;;;27.34
70533;BMP180;58088;51.186;17.130;2022-09-09T08:24:12;100094.40;;;27.20
70533;BMP180;58088;51.186;17.130;2022-09-09T08:26:46;100092.80;;;27.20
70533;BMP180;58088;51.186;17.130;2022-09-09T08:29:15;100093.80;;;27.30
70533;BMP180;58088;51.186;17.130;2022-09-09T08:31:54;100091.40;;;27.30
70533;BMP180;58088;51.186;17.130;2022-09-09T08:34:22;100090.40;;;27.30
70533;BMP180;58088;51.186;17.130;2022-09-09T08:36:51;100085.80;;;27.20
70533;BMP180;58088;51.186;17.130;2022-09-09T08:39:21;100086.00;;;27.20
70533;BMP180;58088;51.186;17.130;2022-09-09T08:48:21;100082.20;;;27.02
70533;BMP180;58088;51.186;17.130;2022-09-09T08:50:51;100085.40;;;27.10
70533;BMP180;58088;51.186;17.130;2022-09-09T08:53:43;100089.20;;;27.10
70533;BMP180;58088;51.186;17.130;2022-09-09T08:56:21;100085.60;;;26.90
70533;BMP180;58088;51.186;17.130;2022-09-09T08:58:54;100088.40;;;26.70
70533;BMP180;58088;51.186;17.130;2022-09-09T09:04:49;100093.60;;;26.70
70533;BMP180;58088;51.186;17.130;2022-09-09T09:10:42;100099.60;;;26.50
70533;BMP180;58088;51.186;17.130;2022-09-09T09:13:20;100098.60;;;26.50
70533;BMP180;58088;51.186;17.130;2022-09-09T09:16:10;100096.20;;;26.60
70533;BMP180;58088;51.186;17.130;2022-09-09T09:18:38;100103.40;;;26.70
70533;BMP180;58088;51.186;17.130;2022-09-09T09:24:18;100097.60;;;26.90
70533;BMP180;58088;51.186;17.130;2022-09-09T09:26:46;100099.60;;;26.80
70533;BMP180;58088;51.186;17.130;2022-09-09T09:29:16;100098.20;;;26.90
70533;BMP180;58088;51.186;17.130;2022-09-09T09:31:52;100094.60;;;26.80
70533;BMP180;58088;51.186;17.130;2022-09-09T09:34:22;100097.20;;;26.90
70533;BMP180;58088;51.186;17.130;2022-09-09T09:36:56;100096.20;;;26.98
70533;BMP180;58088;51.186;17.130;2022-09-09T09:39:29;100103.40;;;27.10
70533;BMP180;58088;51.186;17.130;2022-09-09T09:41:57;100101.80;;;27.20
70533;BMP180;58088;51.186;17.130;2022-09-09T09:44:32;100105.80;;;27.10
70533;BMP180;58088;51.186;17.130;2022-09-09T09:47:11;100104.20;;;27.00
70533;BMP180;58088;51.186;17.130;2022-09-09T09:49:54;100104.60;;;26.90
70533;BMP180;58088;51.186;17.130;2022-09-09T09:52:26;100097.60;;;26.90
70533;BMP180;58088;51.186;17.130;2022-09-09T09:54:53;100098.60;;;27.00
70533;BMP180;58088;51.186;17.130;2022-09-09T09:57:26;100103.40;;;27.10
70533;BMP180;58088;51.186;17.130;2022-09-09T10:00:14;100103.80;;;27.10
70533;BMP180;58088;51.186;17.130;2022-09-09T10:02:45;100102.40;;;27.18
70533;BMP180;58088;51.186;17.130;2022-09-09T10:05:27;100103.40;;;27.22
70533;BMP180;58088;51.186;17.130;2022-09-09T10:08:13;100101.00;;;27.40
70533;BMP180;58088;51.186;17.130;2022-09-09T10:11:26;100105.80;;;27.50
70533;BMP180;58088;51.186;17.130;2022-09-09T10:14:19;100101.60;;;27.40
70533;BMP180;58088;51.186;17.130;2022-09-09T10:19:36;100100.60;;;27.40
70533;BMP180;58088;51.186;17.130;2022-09-09T10:31:29;100103.00;;;27.10
70533;BMP180;58088;51.186;17.130;2022-09-09T10:36:47;100105.60;;;27.10
70533;BMP180;58088;51.186;17.130;2022-09-09T10:39:39;100103.80;;;27.20
70533;BMP180;58088;51.186;17.130;2022-09-09T10:42:12;100093.80;;;27.20
70533;BMP180;58088;51.186;17.130;2022-09-09T10:50:45;100092.60;;;27.30
70533;BMP180;58088;51.186;17.130;2022-09-09T10:53:35;100089.40;;;27.20
70533;BMP180;58088;51.186;17.130;2022-09-09T10:56:13;100089.80;;;27.20
70533;BMP180;58088;51.186;17.130;2022-09-09T10:58:48;100084.20;;;27.20
70533;BMP180;58088;51.186;17.130;2022-09-09T11:01:41;100088.40;;;27.06
70533;BMP180;58088;51.186;17.130;2022-09-09T11:04:37;100085.80;;;27.10
70533;BMP180;58088;51.186;17.130;2022-09-09T11:07:11;100085.00;;;27.20
70533;BMP180;58088;51.186;17.130;2022-09-09T11:09:55;100086.60;;;27.20
70533;BMP180;58088;51.186;17.130;2022-09-09T11:12:27;100086.80;;;27.30
70533;BMP180;58088;51.186;17.130;2022-09-09T11:18:01;100084.60;;;27.50
70533;BMP180;58088;51.186;17.130;2022-09-09T11:20:30;100082.20;;;27.40
70533;BMP180;58088;51.186;17.130;2022-09-09T11:23:05;100088.00;;;27.50
70533;BMP180;58088;51.186;17.130;2022-09-09T11:25:45;100092.00;;;27.60
70533;BMP180;58088;51.186;17.130;2022-09-09T11:34:27;100089.40;;;27.70
70533;BMP180;58088;51.186;17.130;2022-09-09T11:40:26;100095.00;;;27.70
70533;BMP180;58088;51.186;17.130;2022-09-09T11:43:13;100088.40;;;27.64
70533;BMP180;58088;51.186;17.130;2022-09-09T11:45:43;100092.80;;;27.50
70533;BMP180;58088;51.186;17.130;2022-09-09T11:48:33;100089.60;;;27.40
70533;BMP180;58088;51.186;17.130;2022-09-09T11:51:12;100080.00;;;27.34
70533;BMP180;58088;51.186;17.130;2022-09-09T11:53:57;100077.80;;;27.50
70533;BMP180;58088;51.186;17.130;2022-09-09T11:56:34;100086.60;;;27.60
70533;BMP180;58088;51.186;17.130;2022-09-09T11:59:31;100086.60;;;27.70
70533;BMP180;58088;51.186;17.130;2022-09-09T12:02:02;100088.80;;;27.70
70533;BMP180;58088;51.186;17.130;2022-09-09T12:04:47;100088.40;;;27.60
70533;BMP180;58088;51.186;17.130;2022-09-09T12:07:36;100084.80;;;27.48
70533;BMP180;58088;51.186;17.130;2022-09-09T12:12:50;100078.60;;;27.40
70533;BMP180;58088;51.186;17.130;2022-09-09T12:15:28;100081.00;;;27.40
70533;BMP180;58088;51.186;17.130;2022-09-09T12:17:57;100078.80;;;27.40
70533;BMP180;58088;51.186;17.130;2022-09-09T12:20:36;100078.20;;;27.22
70533;BMP180;58088;51.186;17.130;2022-09-09T12:23:19;100074.40;;;27.10
70533;BMP180;58088;51.186;17.130;2022-09-09T12:26:28;100081.00;;;27.10
70533;BMP180;58088;51.186;17.130;2022-09-09T12:29:45;100073.20;;;27.00
70533;BMP180;58088;51.186;17.130;2022-09-09T12:32:24;100071.40;;;26.90
70533;BMP180;58088;51.186;17.130;2022-09-09T12:35:02;100067.20;;;27.00
70533;BMP180;58088;51.186;17.130;2022-09-09T12:40:20;100064.80;;;27.20
70533;BMP180;58088;51.186;17.130;2022-09-09T12:42:47;100060.80;;;27.20
70533;BMP180;58088;51.186;17.130;2022-09-09T12:45:26;100063.00;;;27.20
70533;BMP180;58088;51.186;17.130;2022-09-09T12:48:00;100068.40;;;27.20
70533;BMP180;58088;51.186;17.130;2022-09-09T12:50:33;100071.80;;;27.20
70533;BMP180;58088;51.186;17.130;2022-09-09T12:53:36;100075.20;;;27.20
70533;BMP180;58088;51.186;17.130;2022-09-09T12:56:08;100085.80;;;27.20
70533;BMP180;58088;51.186;17.130;2022-09-09T12:58:38;100091.60;;;27.10
70533;BMP180;58088;51.186;17.130;2022-09-09T13:01:39;100097.20;;;27.10
70533;BMP180;58088;51.186;17.130;2022-09-09T13:04:21;100088.80;;;27.10
70533;BMP180;58088;51.186;17.130;2022-09-09T13:06:50;100073.40;;;27.10
70533;BMP180;58088;51.186;17.130;2022-09-09T13:09:19;100066.80;;;27.10
70533;BMP180;58088;51.186;17.130;2022-09-09T13:11:52;100068.60;;;27.20
70533;BMP180;58088;51.186;17.130;2022-09-09T13:14:32;100070.60;;;27.10
70533;BMP180;58088;51.186;17.130;2022-09-09T13:17:03;100071.20;;;27.10
70533;BMP180;58088;51.186;17.130;2022-09-09T13:19:44;100071.00;;;27.00
70533;BMP180;58088;51.186;17.130;2022-09-09T13:27:41;100062.40;;;27.10
70533;BMP180;58088;51.186;17.130;2022-09-09T13:33:23;100049.60;;;27.20
70533;BMP180;58088;51.186;17.130;2022-09-09T13:38:37;100057.20;;;27.20
70533;BMP180;58088;51.186;17.130;2022-09-09T13:41:08;100056.20;;;27.10
70533;BMP180;58088;51.186;17.130;2022-09-09T13:43:45;100052.40;;;27.10
70533;BMP180;58088;51.186;17.130;2022-09-09T13:46:38;100048.80;;;27.10
70533;BMP180;58088;51.186;17.130;2022-09-09T13:51:46;100039.40;;;26.70
70533;BMP180;58088;51.186;17.130;2022-09-09T13:54:15;100036.00;;;26.70
70533;BMP180;58088;51.186;17.130;2022-09-09T13:56:43;100043.00;;;26.66
70533;BMP180;58088;51.186;17.130;2022-09-09T13:59:16;100034.20;;;26.64
70533;BMP180;58088;51.186;17.130;2022-09-09T14:01:43;100031.00;;;26.70
70533;BMP180;58088;51.186;17.130;2022-09-09T14:04:10;100029.00;;;26.66
70533;BMP180;58088;51.186;17.130;2022-09-09T14:06:37;100028.80;;;26.60
70533;BMP180;58088;51.186;17.130;2022-09-09T14:09:07;100030.40;;;26.60
70533;BMP180;58088;51.186;17.130;2022-09-09T14:11:34;100033.20;;;26.60
70533;BMP180;58088;51.186;17.130;2022-09-09T14:14:00;100033.80;;;26.50
70533;BMP180;58088;51.186;17.130;2022-09-09T14:16:26;100025.20;;;26.50
70533;BMP180;58088;51.186;17.130;2022-09-09T14:18:53;100033.20;;;26.40
70533;BMP180;58088;51.186;17.130;2022-09-09T14:21:23;100035.60;;;26.40
70533;BMP180;58088;51.186;17.130;2022-09-09T14:23:49;100029.80;;;26.30
70533;BMP180;58088;51.186;17.130;2022-09-09T14:26:15;100025.40;;;26.20
70533;BMP180;58088;51.186;17.130;2022-09-09T14:28:41;100026.00;;;26.20
70533;BMP180;58088;51.186;17.130;2022-09-09T14:31:08;100031.00;;;26.20
70533;BMP180;58088;51.186;17.130;2022-09-09T14:33:36;100035.60;;;26.10
70533;BMP180;58088;51.186;17.130;2022-09-09T14:36:03;100032.20;;;26.10
70533;BMP180;58088;51.186;17.130;2022-09-09T14:38:35;100032.40;;;26.10
70533;BMP180;58088;51.186;17.130;2022-09-09T14:41:07;100037.00;;;26.10
70533;BMP180;58088;51.186;17.130;2022-09-09T14:43:33;100036.20;;;26.10
70533;BMP180;58088;51.186;17.130;2022-09-09T14:46:12;100032.00;;;26.10
70533;BMP180;58088;51.186;17.130;2022-09-09T14:48:39;100030.80;;;26.04
70533;BMP180;58088;51.186;17.130;2022-09-09T14:51:16;100025.40;;;26.02
70533;BMP180;58088;51.186;17.130;2022-09-09T14:53:44;100033.80;;;26.04
70533;BMP180;58088;51.186;17.130;2022-09-09T14:56:17;100026.20;;;26.10
70533;BMP180;58088;51.186;17.130;2022-09-09T14:58:44;100017.40;;;26.10
70533;BMP180;58088;51.186;17.130;2022-09-09T15:01:15;100015.60;;;26.10
70533;BMP180;58088;51.186;17.130;2022-09-09T15:03:47;100008.00;;;26.10
70533;BMP180;58088;51.186;17.130;2022-09-09T15:06:14;100008.60;;;26.12
70533;BMP180;58088;51.186;17.130;2022-09-09T15:08:44;100005.20;;;26.10
70533;BMP180;58088;51.186;17.130;2022-09-09T15:11:13;100005.00;;;26.00
70533;BMP180;58088;51.186;17.130;2022-09-09T15:13:42;100000.40;;;26.00
70533;BMP180;58088;51.186;17.130;2022-09-09T15:16:15;99998.40;;;25.90
70533;BMP180;58088;51.186;17.130;2022-09-09T15:18:43;99997.00;;;25.80
70533;BMP180;58088;51.186;17.130;2022-09-09T15:21:20;99989.40;;;25.78
70533;BMP180;58088;51.186;17.130;2022-09-09T15:23:47;99990.80;;;25.62
70533;BMP180;58088;51.186;17.130;2022-09-09T15:26:15;99987.40;;;25.60
70533;BMP180;58088;51.186;17.130;2022-09-09T15:28:44;99985.80;;;25.50
70533;BMP180;58088;51.186;17.130;2022-09-09T15:31:13;99984.80;;;25.50
70533;BMP180;58088;51.186;17.130;2022-09-09T15:33:41;99983.80;;;25.40
70533;BMP180;58088;51.186;17.130;2022-09-09T15:36:21;99984.00;;;25.38
70533;BMP180;58088;51.186;17.130;2022-09-09T15:38:48;99983.20;;;25.30
70533;BMP180;58088;51.186;17.130;2022-09-09T15:41:17;99987.40;;;25.30
70533;BMP180;58088;51.186;17.130;2022-09-09T15:43:52;99991.00;;;25.28
70533;BMP180;58088;51.186;17.130;2022-09-09T15:46:37;99994.40;;;25.22
70533;BMP180;58088;51.186;17.130;2022-09-09T15:49:10;100005.40;;;25.20
70533;BMP180;58088;51.186;17.130;2022-09-09T15:51:40;100012.40;;;25.20
70533;BMP180;58088;51.186;17.130;2022-09-09T15:54:07;100011.20;;;25.10
70533;BMP180;58088;51.186;17.130;2022-09-09T15:56:33;100012.00;;;25.10
70533;BMP180;58088;51.186;17.130;2022-09-09T15:59:02;100006.80;;;25.00
70533;BMP180;58088;51.186;17.130;2022-09-09T16:01:30;100008.80;;;25.00
70533;BMP180;58088;51.186;17.130;2022-09-09T16:03:58;100006.00;;;24.90
70533;BMP180;58088;51.186;17.130;2022-09-09T16:06:28;100010.60;;;24.90
70533;BMP180;58088;51.186;17.130;2022-09-09T16:08:57;100010.40;;;24.90
70533;BMP180;58088;51.186;17.130;2022-09-09T16:11:29;100010.60;;;24.86